Time;durP1;ratioP1;P1;durP2;ratioP2;P2;SDS_P1;SDS_P2;PMS_P1;PMS_P2;Temp;Humidity;BMP_temperature;BMP_pressure;BME280_temperature;BME280_humidity;BME280_pressure;Samples;Min_cycle;Max_cycle;Signal;HPM_P1;HPM_P2
2021/03/17 00:00:33;;;;;;;8.83;6.63;;;0.60;99.90;;;;;;5105125;28;20482;-84
2021/03/17 00:02:59;;;;;;;7.43;6.33;;;;;;;;;;5105304;28;20414;-84
2021/03/17 00:05:33;;;;;;;9.77;6.47;;;0.60;99.90;;;;;;5087878;28;20267;-84
2021/03/17 00:07:59;;;;;;;9.70;5.77;;;0.70;99.90;;;;;;5091664;28;20437;-84
2021/03/17 00:10:28;;;;;;;8.30;4.83;;;0.70;99.90;;;;;;5113816;28;20452;-84
2021/03/17 00:12:56;;;;;;;7.40;5.20;;;1.60;99.90;;;;;;5112092;28;20175;-84
2021/03/17 00:15:23;;;;;;;7.57;5.10;;;0.50;99.90;;;;;;5101351;28;20437;-84
2021/03/17 00:17:49;;;;;;;6.50;5.23;;;0.70;99.90;;;;;;5082156;28;20908;-84
2021/03/17 00:20:16;;;;;;;6.93;5.60;;;0.60;99.90;;;;;;5082096;28;20425;-84
2021/03/17 00:22:42;;;;;;;11.03;6.40;;;0.60;99.90;;;;;;5101041;28;20699;-84
2021/03/17 00:25:09;;;;;;;11.93;7.23;;;1.10;99.90;;;;;;5082251;28;20546;-84
2021/03/17 00:27:34;;;;;;;11.07;5.40;;;0.60;99.90;;;;;;5081964;28;20184;-84
2021/03/17 00:30:00;;;;;;;8.97;5.47;;;1.30;99.90;;;;;;5081297;28;20470;-84
2021/03/17 00:32:27;;;;;;;6.23;4.77;;;;;;;;;;5100003;28;20222;-84
2021/03/17 00:34:52;;;;;;;10.20;6.07;;;0.60;99.90;;;;;;5082517;28;20817;-84
2021/03/17 00:37:18;;;;;;;4.93;4.20;;;0.50;99.90;;;;;;5082169;28;20468;-85
2021/03/17 00:39:44;;;;;;;6.40;4.43;;;0.60;99.90;;;;;;5082199;28;20182;-85
2021/03/17 00:42:10;;;;;;;4.77;4.10;;;0.50;99.90;;;;;;5081413;28;20180;-84
2021/03/17 00:44:36;;;;;;;6.27;4.67;;;0.50;99.90;;;;;;5082016;28;20656;-85
2021/03/17 00:47:02;;;;;;;6.27;4.70;;;;;;;;;;5100851;28;20685;-84
2021/03/17 00:49:28;;;;;;;4.33;3.70;;;0.50;99.90;;;;;;5100784;28;20409;-84
2021/03/17 00:51:53;;;;;;;5.47;4.47;;;1.50;99.90;;;;;;5082449;28;20419;-84
2021/03/17 00:54:19;;;;;;;5.63;4.40;;;1.30;99.90;;;;;;5101229;28;20164;-85
2021/03/17 00:56:45;;;;;;;5.00;3.83;;;0.60;99.90;;;;;;5082185;28;20661;-85
2021/03/17 00:59:10;;;;;;;5.67;4.30;;;0.70;99.90;;;;;;5101337;28;20176;-85
2021/03/17 01:01:36;;;;;;;5.80;4.13;;;0.60;99.90;;;;;;5082684;28;20184;-84
2021/03/17 01:04:02;;;;;;;5.50;4.33;;;0.50;99.90;;;;;;5101468;28;20184;-85
2021/03/17 01:06:27;;;;;;;5.77;4.57;;;0.50;99.90;;;;;;5082745;28;20199;-85
2021/03/17 01:08:53;;;;;;;4.83;4.07;;;1.30;99.90;;;;;;5101639;28;20644;-84
2021/03/17 01:11:19;;;;;;;5.57;4.57;;;0.60;99.90;;;;;;5083024;28;20203;-85
2021/03/17 01:13:45;;;;;;;8.73;4.13;;;0.60;99.90;;;;;;5083073;28;20211;-85
2021/03/17 01:16:12;;;;;;;5.03;4.23;;;0.70;99.90;;;;;;5100985;28;20491;-85
2021/03/17 01:18:37;;;;;;;6.77;4.80;;;0.70;99.90;;;;;;5100911;28;20172;-85
2021/03/17 01:21:03;;;;;;;4.87;4.37;;;0.90;99.90;;;;;;5082938;28;20828;-85
2021/03/17 01:23:29;;;;;;;5.07;4.17;;;0.70;99.90;;;;;;5082338;28;20281;-85
2021/03/17 01:25:54;;;;;;;6.10;4.10;;;0.60;99.90;;;;;;5082781;28;20204;-85
2021/03/17 01:28:20;;;;;;;5.33;4.43;;;0.60;99.90;;;;;;5082530;28;20267;-85
2021/03/17 01:30:49;;;;;;;5.17;4.67;;;0.50;99.90;;;;;;5100741;28;20294;-85
2021/03/17 01:33:18;;;;;;;3.93;3.50;;;0.70;99.90;;;;;;5082332;28;20426;-85
2021/03/17 01:35:46;;;;;;;4.20;3.80;;;0.50;99.90;;;;;;5082401;28;20521;-86
2021/03/17 01:38:12;;;;;;;5.00;3.70;;;0.60;99.90;;;;;;5082696;28;20443;-85
2021/03/17 01:40:42;;;;;;;4.30;3.60;;;0.50;99.90;;;;;;5083033;28;20441;-85
2021/03/17 01:43:09;;;;;;;5.23;4.17;;;0.50;99.90;;;;;;5083459;28;20476;-85
2021/03/17 01:45:35;;;;;;;4.77;4.00;;;1.90;99.90;;;;;;5101836;28;20462;-85
2021/03/17 01:48:01;;;;;;;5.83;3.87;;;1.70;99.90;;;;;;5083132;28;20183;-86
2021/03/17 01:50:29;;;;;;;4.07;3.47;;;0.50;99.90;;;;;;5083295;28;20230;-86
2021/03/17 01:52:55;;;;;;;4.00;3.40;;;1.90;99.90;;;;;;5084361;28;20406;-86
2021/03/17 01:55:22;;;;;;;4.17;3.50;;;0.60;99.90;;;;;;5083986;28;20450;-86
2021/03/17 01:57:48;;;;;;;5.17;3.70;;;0.90;99.90;;;;;;5083922;28;20418;-86
2021/03/17 02:00:17;;;;;;;5.13;4.00;;;0.60;99.90;;;;;;5084263;28;20431;-86
2021/03/17 02:02:49;;;;;;;5.33;3.60;;;0.60;99.90;;;;;;5084665;28;20823;-86
2021/03/17 02:05:17;;;;;;;4.47;3.50;;;0.50;99.90;;;;;;5084469;28;20469;-85
2021/03/17 02:07:43;;;;;;;4.33;3.93;;;0.60;99.90;;;;;;5079649;28;20962;-85
2021/03/17 02:10:12;;;;;;;5.33;4.10;;;1.50;99.90;;;;;;5080051;28;20461;-85
2021/03/17 02:12:43;;;;;;;3.93;3.57;;;0.60;99.90;;;;;;5079888;28;20418;-85
2021/03/17 02:15:24;;;;;;;5.83;3.70;;;0.50;99.90;;;;;;5079639;28;20454;-85
2021/03/17 02:17:52;;;;;;;4.83;3.83;;;0.60;99.90;;;;;;5079380;28;20418;-85
2021/03/17 02:21:12;;;;;;;4.90;3.93;;;0.60;99.90;;;;;;5098857;28;20421;-86
2021/03/17 02:24:06;;;;;;;4.23;3.53;;;0.60;99.90;;;;;;5019220;28;20428;-85
2021/03/17 02:26:53;;;;;;;4.10;3.50;;;0.60;99.90;;;;;;5080295;28;20437;-86
2021/03/17 02:29:40;;;;;;;5.77;4.07;;;0.60;99.90;;;;;;5079992;28;20527;-86
2021/03/17 02:32:33;;;;;;;4.17;3.40;;;0.60;99.90;;;;;;5099163;28;20871;-86
2021/03/17 02:35:02;;;;;;;6.33;4.10;;;0.60;99.90;;;;;;5098189;28;20394;-86
2021/03/17 02:37:31;;;;;;;5.17;4.60;;;0.60;99.90;;;;;;5098290;28;20402;-85
2021/03/17 02:40:26;;;;;;;5.27;4.27;;;0.50;99.90;;;;;;5098894;28;20501;-86
2021/03/17 02:42:58;;;;;;;4.97;3.80;;;0.60;99.90;;;;;;5098294;28;20412;-86
2021/03/17 02:45:31;;;;;;;4.77;4.10;;;0.60;99.90;;;;;;5080373;28;20438;-86
2021/03/17 02:48:17;;;;;;;4.53;3.83;;;0.70;99.90;;;;;;5080559;28;20406;-86
2021/03/17 02:50:46;;;;;;;8.47;4.70;;;0.60;99.90;;;;;;5079937;28;20454;-86
2021/03/17 02:53:14;;;;;;;5.70;4.20;;;0.50;99.90;;;;;;5098686;28;20402;-85
2021/03/17 02:55:54;;;;;;;5.93;4.63;;;0.60;99.90;;;;;;5081056;28;20437;-86
2021/03/17 02:58:21;;;;;;;6.90;4.03;;;0.50;99.90;;;;;;5101748;28;20406;-86
2021/03/17 03:00:48;;;;;;;5.37;4.67;;;0.60;99.90;;;;;;5083131;28;20418;-86
2021/03/17 03:03:15;;;;;;;5.13;4.30;;;0.70;99.90;;;;;;5101396;28;20745;-86
2021/03/17 03:05:41;;;;;;;4.30;3.90;;;1.00;99.90;;;;;;5101298;28;20950;-86
2021/03/17 03:08:09;;;;;;;6.57;5.17;;;0.60;99.90;;;;;;5108901;28;20493;-86
2021/03/17 03:10:37;;;;;;;6.97;5.37;;;0.70;99.90;;;;;;5120225;28;20445;-85
2021/03/17 03:13:04;;;;;;;4.97;4.43;;;0.60;99.90;;;;;;5121572;28;20403;-85
2021/03/17 03:15:33;;;;;;;5.47;4.50;;;0.90;99.90;;;;;;5088437;28;20458;-86
2021/03/17 03:18:03;;;;;;;6.67;5.77;;;0.40;99.90;;;;;;5085708;28;20544;-86
2021/03/17 03:20:32;;;;;;;6.83;4.93;;;0.60;99.90;;;;;;5103872;28;20452;-86
2021/03/17 03:22:58;;;;;;;5.83;4.93;;;1.30;99.90;;;;;;5085941;28;20414;-86
2021/03/17 03:25:25;;;;;;;6.77;4.83;;;0.60;99.90;;;;;;5105038;28;20430;-86
2021/03/17 03:27:53;;;;;;;6.80;5.03;;;0.60;99.90;;;;;;5086999;28;20775;-86
2021/03/17 03:30:27;;;;;;;6.30;5.57;;;0.60;99.90;;;;;;5087151;28;20461;-86
2021/03/17 03:32:54;;;;;;;6.30;4.70;;;0.50;99.90;;;;;;5085667;28;20497;-86
2021/03/17 03:35:23;;;;;;;7.33;4.77;;;0.50;99.90;;;;;;5104691;28;20470;-86
2021/03/17 03:37:50;;;;;;;5.83;4.33;;;0.50;99.90;;;;;;5104452;28;20394;-86
2021/03/17 03:40:19;;;;;;;6.03;5.03;;;0.50;99.90;;;;;;5085262;28;20430;-86
2021/03/17 03:42:46;;;;;;;7.03;5.47;;;0.60;99.90;;;;;;5103690;28;20410;-86
2021/03/17 03:45:16;;;;;;;5.77;4.90;;;1.10;99.90;;;;;;5085464;28;20460;-86
2021/03/17 03:47:43;;;;;;;5.47;4.60;;;0.60;99.90;;;;;;5085625;28;20443;-86
2021/03/17 03:50:11;;;;;;;5.43;4.23;;;0.60;99.90;;;;;;5085549;28;20541;-86
2021/03/17 03:52:45;;;;;;;6.17;4.87;;;0.50;99.90;;;;;;5084734;28;20976;-86
2021/03/17 03:55:24;;;;;;;7.13;4.70;;;0.60;99.90;;;;;;5102970;28;20439;-86
2021/03/17 03:57:50;;;;;;;5.07;4.50;;;;;;;;;;5103231;28;20394;-86
2021/03/17 04:00:21;;;;;;;5.53;4.17;;;0.60;99.90;;;;;;5102660;28;20406;-86
2021/03/17 04:02:50;;;;;;;5.10;3.80;;;0.60;99.90;;;;;;5102599;28;20413;-87
2021/03/17 04:05:20;;;;;;;8.37;4.77;;;2.10;99.90;;;;;;5102992;28;20430;-86
2021/03/17 04:07:48;;;;;;;5.23;4.17;;;0.60;99.90;;;;;;5084079;28;20434;-86
2021/03/17 04:10:15;;;;;;;6.53;4.40;;;0.70;99.90;;;;;;5082617;28;20466;-86
2021/03/17 04:12:43;;;;;;;8.03;4.70;;;0.60;99.90;;;;;;5080742;28;20437;-86
2021/03/17 04:15:13;;;;;;;5.43;4.83;;;1.30;99.90;;;;;;5098986;28;21018;-86
2021/03/17 04:18:00;;;;;;;5.20;4.63;;;0.60;99.90;;;;;;5081404;28;20403;-86
2021/03/17 04:20:32;;;;;;;9.17;7.73;;;0.70;99.90;;;;;;5099100;28;20489;-86
2021/03/17 04:22:58;;;;;;;12.23;10.53;;;0.80;99.90;;;;;;5081314;28;20414;-86
2021/03/17 04:25:26;;;;;;;13.20;10.33;;;2.00;99.90;;;;;;5080496;28;20816;-86
2021/03/17 04:27:54;;;;;;;12.47;9.07;;;0.70;99.90;;;;;;5097337;28;20183;-86
2021/03/17 04:30:22;;;;;;;21.93;13.97;;;0.60;99.90;;;;;;5098825;28;20461;-86
2021/03/17 04:32:49;;;;;;;19.67;12.83;;;0.60;99.90;;;;;;5080999;28;20421;-87
2021/03/17 04:35:17;;;;;;;9.43;6.23;;;0.60;99.90;;;;;;5080545;28;20469;-87
2021/03/17 04:37:46;;;;;;;8.77;7.10;;;0.60;99.90;;;;;;5080535;28;20403;-86
2021/03/17 04:40:13;;;;;;;10.90;7.73;;;0.60;99.90;;;;;;5080924;28;20446;-86
2021/03/17 04:42:40;;;;;;;10.37;7.40;;;0.60;99.90;;;;;;5099318;28;20417;-86
2021/03/17 04:45:08;;;;;;;8.80;6.67;;;0.60;99.90;;;;;;5081224;28;20481;-86
2021/03/17 04:47:35;;;;;;;8.10;6.10;;;0.60;99.90;;;;;;5080668;28;20418;-86
2021/03/17 04:50:03;;;;;;;9.53;6.90;;;0.60;99.90;;;;;;5080723;28;20454;-87
2021/03/17 04:52:32;;;;;;;8.67;6.93;;;0.70;99.90;;;;;;5099215;28;20168;-86
2021/03/17 04:54:58;;;;;;;8.07;6.03;;;0.70;99.90;;;;;;5097915;28;21034;-86
2021/03/17 04:57:26;;;;;;;9.77;6.47;;;0.60;99.90;;;;;;5098499;28;20438;-87
2021/03/17 04:59:52;;;;;;;10.27;8.33;;;;;;;;;;5079902;28;20626;-86
2021/03/17 05:02:26;;;;;;;8.13;6.80;;;0.60;99.90;;;;;;5098744;28;20414;-86
2021/03/17 05:04:53;;;;;;;9.87;6.93;;;0.70;99.90;;;;;;5099269;28;20401;-86
2021/03/17 05:07:20;;;;;;;8.90;7.07;;;0.70;99.90;;;;;;5099472;28;20438;-86
2021/03/17 05:09:47;;;;;;;10.00;8.17;;;0.70;99.90;;;;;;5080492;28;20462;-87
2021/03/17 05:12:16;;;;;;;10.07;7.50;;;0.70;99.90;;;;;;5080948;28;21165;-87
2021/03/17 05:14:45;;;;;;;10.53;8.07;;;2.00;99.90;;;;;;5080861;28;20419;-87
2021/03/17 05:17:12;;;;;;;8.40;7.27;;;0.60;99.90;;;;;;5081119;28;20967;-87
2021/03/17 05:19:41;;;;;;;7.87;6.33;;;0.60;99.90;;;;;;5081194;28;20827;-86
2021/03/17 05:22:09;;;;;;;10.03;7.17;;;1.60;99.90;;;;;;5099302;28;20433;-86
2021/03/17 05:24:35;;;;;;;9.00;6.60;;;;;;;;;;5081238;28;20418;-87
2021/03/17 05:27:06;;;;;;;7.07;6.37;;;0.50;99.90;;;;;;5081005;28;20453;-87
2021/03/17 05:29:32;;;;;;;10.70;7.47;;;0.50;99.90;;;;;;5081342;28;20406;-86
2021/03/17 05:31:59;;;;;;;7.00;6.07;;;0.80;99.90;;;;;;5081854;28;20814;-87
2021/03/17 05:34:25;;;;;;;7.47;6.50;;;2.20;99.90;;;;;;5081409;28;20439;-87
2021/03/17 05:36:51;;;;;;;9.20;6.67;;;;;;;;;;5079922;28;20533;-87
2021/03/17 05:39:17;;;;;;;9.70;7.57;;;0.50;99.90;;;;;;5078757;28;20180;-87
2021/03/17 05:41:43;;;;;;;15.67;9.77;;;0.50;99.90;;;;;;5079122;28;20425;-87
2021/03/17 05:44:09;;;;;;;10.80;7.80;;;2.80;99.90;;;;;;5079238;28;20186;-86
2021/03/17 05:46:36;;;;;;;8.47;7.27;;;;;;;;;;5078972;28;20557;-87
2021/03/17 05:49:02;;;;;;;8.23;6.63;;;0.50;99.90;;;;;;5078665;28;20859;-84
2021/03/17 05:51:28;;;;;;;8.97;7.00;;;0.50;99.90;;;;;;5096164;28;20458;-85
2021/03/17 05:53:54;;;;;;;10.43;7.23;;;1.10;99.90;;;;;;5077710;28;20449;-86
2021/03/17 05:56:20;;;;;;;9.60;7.53;;;0.50;99.90;;;;;;5095133;28;20242;-86
2021/03/17 05:58:46;;;;;;;10.57;8.10;;;1.00;99.90;;;;;;5077424;28;20418;-85
2021/03/17 06:01:14;;;;;;;11.03;8.60;;;0.50;99.90;;;;;;5086472;28;20180;-85
2021/03/17 06:03:40;;;;;;;9.83;7.90;;;0.60;99.90;;;;;;5099302;28;20200;-85
2021/03/17 06:06:07;;;;;;;10.00;7.90;;;0.50;99.90;;;;;;5101823;28;20437;-86
2021/03/17 06:08:55;;;;;;;9.70;7.57;;;0.50;99.90;;;;;;5083973;28;21013;-85
2021/03/17 06:11:22;;;;;;;8.83;6.83;;;0.60;99.90;;;;;;5080440;28;20454;-86
2021/03/17 06:13:53;;;;;;;11.87;8.27;;;0.60;99.90;;;;;;5079921;28;20417;-85
2021/03/17 06:16:23;;;;;;;9.00;7.40;;;0.70;99.90;;;;;;5079547;28;20433;-85
2021/03/17 06:18:55;;;;;;;9.33;7.87;;;1.40;99.90;;;;;;5097640;28;20418;-85
2021/03/17 06:21:21;;;;;;;11.70;9.03;;;1.20;99.90;;;;;;5078712;28;20414;-84
2021/03/17 06:23:57;;;;;;;10.10;7.77;;;0.70;99.90;;;;;;5079180;28;20421;-84
2021/03/17 06:26:23;;;;;;;11.07;8.10;;;0.70;99.90;;;;;;5097089;28;20433;-84
2021/03/17 06:28:49;;;;;;;11.67;8.07;;;0.80;99.90;;;;;;5078183;28;20908;-84
2021/03/17 06:31:15;;;;;;;11.40;8.90;;;0.80;99.90;;;;;;5099781;28;20461;-86
2021/03/17 06:33:41;;;;;;;13.33;10.07;;;2.10;99.90;;;;;;5083419;28;20176;-85
2021/03/17 06:36:28;;;;;;;15.17;9.70;;;0.90;99.90;;;;;;5082532;28;20465;-85
2021/03/17 06:39:08;;;;;;;19.67;11.30;;;0.90;99.90;;;;;;5082671;28;20743;-84
2021/03/17 06:41:49;;;;;;;15.10;10.23;;;0.90;99.90;;;;;;5083566;28;20414;-83
2021/03/17 06:44:26;;;;;;;13.27;9.93;;;0.90;99.90;;;;;;5101023;28;20441;-85
2021/03/17 06:47:11;;;;;;;14.50;10.37;;;1.00;99.90;;;;;;5101783;28;20864;-86
2021/03/17 06:49:39;;;;;;;10.30;8.30;;;0.80;99.90;;;;;;5099993;28;20497;-85
2021/03/17 06:52:37;;;;;;;12.83;9.23;;;0.80;99.90;;;;;;5101867;28;20405;-85
2021/03/17 06:55:17;;;;;;;9.80;7.90;;;0.70;99.90;;;;;;5102055;28;20487;-85
2021/03/17 06:57:51;;;;;;;11.37;7.80;;;0.70;99.90;;;;;;5083868;28;20500;-85
2021/03/17 07:00:32;;;;;;;11.13;8.03;;;0.60;99.90;;;;;;5083784;28;20417;-85
2021/03/17 07:02:59;;;;;;;11.70;8.30;;;0.60;99.90;;;;;;5084165;28;20410;-85
2021/03/17 07:05:46;;;;;;;11.20;9.23;;;0.60;99.90;;;;;;5101404;28;20793;-84
2021/03/17 07:08:13;;;;;;;12.03;8.93;;;0.60;99.90;;;;;;5101116;28;20422;-85
2021/03/17 07:10:44;;;;;;;13.73;9.80;;;0.70;99.90;;;;;;5082685;28;20461;-85
2021/03/17 07:13:13;;;;;;;12.00;9.27;;;0.90;99.90;;;;;;5100826;28;20743;-85
2021/03/17 07:15:40;;;;;;;13.47;9.43;;;1.00;99.90;;;;;;5101334;28;20783;-85
2021/03/17 07:18:27;;;;;;;15.80;10.20;;;1.10;99.90;;;;;;5082612;28;20968;-85
2021/03/17 07:20:58;;;;;;;13.87;9.77;;;1.20;99.90;;;;;;5100220;28;20410;-85
2021/03/17 07:23:26;;;;;;;13.63;10.10;;;1.30;99.90;;;;;;5082228;28;20414;-84
2021/03/17 07:26:16;;;;;;;11.77;9.10;;;1.20;99.90;;;;;;5081537;28;20811;-84
2021/03/17 07:28:48;;;;;;;14.97;10.13;;;1.20;99.90;;;;;;5082340;28;20505;-84
2021/03/17 07:31:19;;;;;;;12.27;8.47;;;1.30;99.90;;;;;;5100924;28;20860;-84
2021/03/17 07:33:46;;;;;;;14.13;9.10;;;1.50;99.90;;;;;;5082076;28;20414;-84
2021/03/17 07:36:28;;;;;;;11.70;8.50;;;1.30;99.90;;;;;;5082106;28;20441;-84
2021/03/17 07:38:55;;;;;;;13.90;9.47;;;1.30;99.90;;;;;;5099837;28;20402;-84
2021/03/17 07:41:23;;;;;;;14.20;10.77;;;1.30;99.90;;;;;;5100800;28;20410;-84
2021/03/17 07:43:50;;;;;;;11.70;9.73;;;1.50;99.90;;;;;;5082636;28;20419;-84
2021/03/17 07:46:16;;;;;;;14.30;9.37;;;1.80;99.90;;;;;;5100996;28;20422;-84
2021/03/17 07:48:42;;;;;;;13.40;9.27;;;1.70;99.90;;;;;;5098436;28;20418;-83
2021/03/17 07:51:08;;;;;;;18.67;9.67;;;1.70;99.90;;;;;;5082189;28;20196;-84
2021/03/17 07:53:35;;;;;;;17.90;11.80;;;2.00;99.90;;;;;;5100538;28;20441;-83
2021/03/17 07:56:02;;;;;;;19.07;12.37;;;2.00;99.90;;;;;;5081950;28;20669;-83
2021/03/17 07:58:29;;;;;;;14.80;10.17;;;1.90;99.90;;;;;;5081699;28;20452;-84
2021/03/17 08:00:56;;;;;;;14.40;10.17;;;1.40;99.90;;;;;;5100491;28;20773;-83
2021/03/17 08:03:22;;;;;;;15.30;10.37;;;1.40;99.90;;;;;;5081743;28;20423;-83
2021/03/17 08:05:48;;;;;;;11.70;9.40;;;2.70;99.90;;;;;;5081958;28;20445;-83
2021/03/17 08:08:15;;;;;;;13.50;9.40;;;1.30;99.90;;;;;;5081644;28;20434;-84
2021/03/17 08:10:43;;;;;;;11.93;9.07;;;1.50;99.90;;;;;;5081150;28;20200;-84
2021/03/17 08:13:11;;;;;;;16.50;10.13;;;1.80;99.90;;;;;;5081287;28;20445;-84
2021/03/17 08:15:38;;;;;;;11.67;8.67;;;1.50;99.90;;;;;;5081184;28;20441;-84
2021/03/17 08:18:29;;;;;;;12.23;8.77;;;1.30;99.90;;;;;;5099777;28;20410;-84
2021/03/17 08:20:55;;;;;;;11.10;7.80;;;1.40;99.90;;;;;;5081246;28;20753;-84
2021/03/17 08:23:40;;;;;;;12.10;9.00;;;1.40;99.90;;;;;;5081305;28;20440;-84
2021/03/17 08:26:09;;;;;;;10.40;8.00;;;1.60;99.90;;;;;;5081145;28;20195;-84
2021/03/17 08:28:53;;;;;;;13.20;9.33;;;1.70;99.90;;;;;;5098980;28;20410;-84
2021/03/17 08:31:48;;;;;;;12.43;8.70;;;1.80;99.90;;;;;;5099659;28;20438;-84
2021/03/17 08:34:21;;;;;;;11.30;8.80;;;1.80;99.90;;;;;;5081147;28;20919;-84
2021/03/17 08:36:57;;;;;;;12.83;9.57;;;1.70;99.90;;;;;;5098777;28;20422;-84
2021/03/17 08:39:29;;;;;;;15.67;9.57;;;2.00;99.90;;;;;;5080808;28;20406;-85
2021/03/17 08:41:57;;;;;;;14.03;9.03;;;2.30;99.90;;;;;;5081019;28;20420;-85
2021/03/17 08:44:27;;;;;;;13.63;9.73;;;2.80;99.90;;;;;;5080992;28;20418;-84
2021/03/17 08:47:16;;;;;;;10.27;7.93;;;2.90;99.90;;;;;;5081007;28;20517;-84
2021/03/17 08:49:44;;;;;;;10.83;7.93;;;3.10;99.90;;;;;;5080563;28;20544;-84
2021/03/17 08:52:10;;;;;;;14.30;9.40;;;3.10;99.90;;;;;;5080614;28;20409;-84
2021/03/17 08:54:41;;;;;;;10.70;9.03;;;3.30;99.90;;;;;;5080225;28;20407;-84
2021/03/17 08:57:11;;;;;;;11.30;8.57;;;3.20;99.90;;;;;;5107708;28;20453;-84
2021/03/17 08:59:47;;;;;;;13.23;8.67;;;3.30;99.90;;;;;;5094623;28;20907;-84
2021/03/17 09:02:21;;;;;;;14.47;8.67;;;3.40;99.90;;;;;;5105878;28;20397;-84
2021/03/17 09:04:49;;;;;;;11.77;8.77;;;3.40;99.90;;;;;;5079748;28;20417;-85
2021/03/17 09:07:15;;;;;;;11.33;8.07;;;3.50;99.90;;;;;;5079520;28;20838;-86
2021/03/17 09:09:45;;;;;;;12.30;8.67;;;3.80;99.90;;;;;;5097194;28;20485;-86
2021/03/17 09:12:11;;;;;;;10.67;7.90;;;3.80;99.90;;;;;;5078902;28;20421;-86
2021/03/17 09:14:38;;;;;;;11.03;8.77;;;3.80;99.90;;;;;;5097247;28;20895;-86
2021/03/17 09:17:12;;;;;;;11.93;8.67;;;3.50;99.90;;;;;;5083299;28;20200;-87
2021/03/17 09:20:01;;;;;;;10.20;8.30;;;3.20;99.90;;;;;;5085800;28;20414;-86
2021/03/17 09:22:48;;;;;;;12.17;8.57;;;3.00;99.90;;;;;;5104005;28;20445;-87
2021/03/17 09:25:23;;;;;;;11.13;7.60;;;3.00;99.90;;;;;;5084740;28;20450;-87
2021/03/17 09:27:56;;;;;;;15.33;9.20;;;3.00;99.90;;;;;;5084588;28;20464;-87
2021/03/17 09:30:25;;;;;;;12.30;8.70;;;3.10;99.90;;;;;;5102172;28;20184;-87
2021/03/17 09:32:59;;;;;;;10.70;8.10;;;3.00;99.90;;;;;;5084144;28;20441;-87
2021/03/17 09:35:25;;;;;;;14.17;9.10;;;2.90;99.90;;;;;;5101494;28;20426;-87
2021/03/17 09:38:05;;;;;;;11.03;7.90;;;3.10;99.90;;;;;;5101710;28;20407;-87
2021/03/17 09:40:34;;;;;;;15.77;10.43;;;3.10;99.90;;;;;;5083901;28;20421;-87
2021/03/17 09:42:59;;;;;;;9.83;7.63;;;3.10;99.90;;;;;;5099446;28;20417;-87
2021/03/17 09:45:25;;;;;;;10.67;8.07;;;3.10;99.90;;;;;;5082953;28;20811;-88
2021/03/17 09:47:58;;;;;;;9.10;6.87;;;3.10;99.90;;;;;;5082925;28;20184;-87
2021/03/17 09:50:25;;;;;;;9.07;6.90;;;3.30;99.90;;;;;;5083492;28;20576;-87
2021/03/17 09:52:51;;;;;;;8.87;7.07;;;3.30;99.90;;;;;;5083141;28;20477;-87
2021/03/17 09:55:32;;;;;;;9.67;7.67;;;3.50;99.90;;;;;;5100524;28;20437;-86
2021/03/17 09:58:00;;;;;;;9.87;7.27;;;3.40;99.90;;;;;;5082432;28;20418;-86
2021/03/17 10:00:26;;;;;;;8.67;6.37;;;3.40;99.90;;;;;;5100638;28;20468;-86
2021/03/17 10:02:52;;;;;;;8.93;7.03;;;3.10;99.90;;;;;;5101330;28;20414;-86
2021/03/17 10:05:18;;;;;;;9.00;6.80;;;3.30;99.90;;;;;;5083998;28;20437;-86
2021/03/17 10:07:44;;;;;;;11.77;7.00;;;3.20;99.90;;;;;;5105592;28;20336;-86
2021/03/17 10:10:10;;;;;;;9.93;7.33;;;3.20;99.90;;;;;;5088271;28;20196;-86
2021/03/17 10:12:35;;;;;;;9.63;6.70;;;3.30;99.90;;;;;;5088056;28;20401;-86
2021/03/17 10:15:13;;;;;;;10.50;6.87;;;3.50;99.90;;;;;;5106174;28;20199;-86
2021/03/17 10:17:39;;;;;;;10.97;7.47;;;3.60;99.90;;;;;;5105700;28;20637;-86
2021/03/17 10:20:11;;;;;;;8.80;6.30;;;3.70;99.90;;;;;;5087485;28;20414;-87
2021/03/17 10:22:37;;;;;;;9.53;6.73;;;3.70;99.90;;;;;;5087015;28;20566;-86
2021/03/17 10:25:12;;;;;;;8.40;6.20;;;3.70;99.90;;;;;;5105111;28;20410;-86
2021/03/17 10:27:41;;;;;;;9.63;6.93;;;4.00;99.90;;;;;;5086687;28;20417;-86
2021/03/17 10:30:25;;;;;;;9.43;5.57;;;4.30;99.90;;;;;;5086371;28;20463;-86
2021/03/17 10:32:53;;;;;;;6.37;5.23;;;4.20;99.90;;;;;;5105113;28;20394;-86
2021/03/17 10:35:19;;;;;;;10.93;6.27;;;3.80;99.90;;;;;;5103419;28;20475;-86
2021/03/17 10:37:46;;;;;;;9.30;5.87;;;3.50;99.90;;;;;;5101303;28;20402;-85
2021/03/17 10:40:15;;;;;;;7.90;6.53;;;3.30;99.90;;;;;;5101143;28;20460;-85
2021/03/17 10:42:47;;;;;;;8.03;5.57;;;3.20;99.90;;;;;;5083758;28;20421;-85
2021/03/17 10:45:21;;;;;;;7.43;5.73;;;3.00;99.90;;;;;;5101425;28;20426;-85
2021/03/17 10:47:48;;;;;;;8.90;6.27;;;2.90;99.90;;;;;;5083043;28;20441;-85
2021/03/17 10:50:18;;;;;;;9.77;6.77;;;2.70;99.90;;;;;;5083064;28;20496;-85
2021/03/17 10:52:47;;;;;;;7.17;4.77;;;2.60;99.90;;;;;;5082451;28;20399;-85
2021/03/17 10:55:22;;;;;;;10.03;5.87;;;2.50;99.90;;;;;;5082859;28;20430;-85
2021/03/17 10:57:49;;;;;;;9.60;5.27;;;2.50;99.90;;;;;;5101062;28;20394;-85
2021/03/17 11:00:22;;;;;;;10.20;6.87;;;2.50;99.90;;;;;;5083068;28;20830;-84
2021/03/17 11:02:49;;;;;;;9.70;6.33;;;2.60;99.90;;;;;;5082541;28;20417;-85
2021/03/17 11:05:15;;;;;;;8.03;5.70;;;2.60;99.90;;;;;;5082985;28;20434;-84
2021/03/17 11:08:06;;;;;;;7.00;5.37;;;2.60;99.90;;;;;;5083169;28;20499;-84
2021/03/17 11:10:32;;;;;;;6.93;5.93;;;2.60;99.90;;;;;;5083335;28;20457;-84
2021/03/17 11:13:02;;;;;;;8.30;5.70;;;2.60;99.90;;;;;;5101930;28;20411;-84
2021/03/17 11:15:31;;;;;;;8.57;6.00;;;2.80;99.90;;;;;;5101296;28;20188;-84
2021/03/17 11:17:58;;;;;;;6.53;4.97;;;3.00;99.90;;;;;;5083406;28;21053;-84
2021/03/17 11:20:25;;;;;;;8.10;6.00;;;3.10;99.90;;;;;;5101300;28;20407;-84
2021/03/17 11:22:51;;;;;;;7.40;5.13;;;3.00;99.90;;;;;;5101887;28;20903;-83
2021/03/17 11:25:23;;;;;;;7.17;5.30;;;3.00;99.90;;;;;;5083389;28;20544;-84
2021/03/17 11:27:49;;;;;;;9.10;5.60;;;3.00;99.90;;;;;;5083283;28;20168;-84
2021/03/17 11:30:15;;;;;;;9.60;6.17;;;3.20;99.90;;;;;;5084038;28;20453;-84
2021/03/17 11:32:41;;;;;;;8.17;5.43;;;3.60;99.90;;;;;;5101705;28;20201;-84
2021/03/17 11:35:07;;;;;;;8.37;5.10;;;4.20;99.90;;;;;;5083525;28;20430;-84
2021/03/17 11:37:33;;;;;;;6.00;5.10;;;5.60;99.90;;;;;;5101881;28;20175;-84
2021/03/17 11:39:59;;;;;;;6.13;4.60;;;6.30;99.90;;;;;;5084098;28;20493;-84
2021/03/17 11:42:24;;;;;;;7.17;5.60;;;6.00;99.90;;;;;;5083936;28;20271;-84
2021/03/17 11:44:50;;;;;;;6.93;4.83;;;5.50;99.90;;;;;;5083997;28;20177;-84
2021/03/17 11:47:16;;;;;;;9.07;4.60;;;5.10;99.90;;;;;;5102410;28;20192;-85
2021/03/17 11:49:42;;;;;;;8.97;4.77;;;4.80;99.90;;;;;;5084430;28;20186;-84
2021/03/17 11:52:08;;;;;;;7.20;4.73;;;4.70;99.90;;;;;;5085578;28;20178;-84
2021/03/17 11:54:34;;;;;;;7.97;5.33;;;4.70;99.90;;;;;;5103729;28;20170;-84
2021/03/17 11:57:01;;;;;;;7.40;4.20;;;4.40;99.90;;;;;;5087617;28;20197;-83
2021/03/17 11:59:26;;;;;;;8.20;3.90;;;4.50;99.90;;;;;;5106125;28;20169;-83
2021/03/17 12:01:52;;;;;;;6.27;4.40;;;4.80;99.90;;;;;;5095835;28;20224;-84
2021/03/17 12:04:18;;;;;;;5.73;4.20;;;5.90;99.90;;;;;;5079476;28;20263;-80
2021/03/17 12:06:43;;;;;;;5.70;3.80;;;6.40;99.90;;;;;;5077206;28;20782;-80
2021/03/17 12:09:10;;;;;;;5.40;4.00;;;6.20;99.90;;;;;;5117407;28;20204;-79
2021/03/17 12:11:36;;;;;;;5.47;4.00;;;5.80;99.90;;;;;;5100822;28;20195;-82
2021/03/17 12:14:04;;;;;;;5.70;3.93;;;5.60;99.90;;;;;;5101564;28;20185;-79
2021/03/17 12:16:29;;;;;;;5.67;3.63;;;5.40;99.90;;;;;;5119962;28;20183;-81
2021/03/17 12:18:55;;;;;;;6.17;4.07;;;5.40;99.90;;;;;;5099617;28;20184;-81
2021/03/17 12:21:21;;;;;;;4.97;3.47;;;5.20;99.90;;;;;;5117929;28;20184;-79
2021/03/17 12:23:47;;;;;;;6.67;3.87;;;4.80;99.90;;;;;;5099028;28;20649;-78
2021/03/17 12:26:13;;;;;;;4.50;3.10;;;4.80;99.90;;;;;;5099024;28;20243;-81
2021/03/17 12:28:39;;;;;;;4.23;3.30;;;5.30;99.90;;;;;;5116605;28;20176;-80
2021/03/17 12:31:05;;;;;;;5.10;3.20;;;5.40;99.90;;;;;;5098239;28;20741;-78
2021/03/17 12:33:31;;;;;;;8.10;3.67;;;5.40;99.90;;;;;;5116551;28;20646;-78
2021/03/17 12:35:57;;;;;;;5.63;3.83;;;5.00;99.90;;;;;;5098253;28;20196;-79
2021/03/17 12:38:23;;;;;;;5.30;3.90;;;4.70;99.90;;;;;;5097393;28;20548;-80
2021/03/17 12:40:49;;;;;;;4.00;3.17;;;4.40;99.90;;;;;;5078975;28;20180;-80
2021/03/17 12:43:15;;;;;;;4.90;3.80;;;4.20;99.90;;;;;;5078439;28;20212;-80
2021/03/17 12:45:41;;;;;;;7.43;3.27;;;3.90;99.90;;;;;;5078939;28;20208;-80
2021/03/17 12:48:07;;;;;;;5.43;3.03;;;3.70;99.90;;;;;;5078450;28;20199;-80
2021/03/17 12:50:34;;;;;;;5.93;3.40;;;3.50;99.90;;;;;;5095522;28;20206;-81
2021/03/17 12:53:00;;;;;;;3.83;3.17;;;3.50;99.90;;;;;;5075118;28;20425;-80
2021/03/17 12:55:25;;;;;;;4.23;3.47;;;3.40;99.90;;;;;;5078941;28;20191;-80
2021/03/17 12:57:51;;;;;;;7.27;4.00;;;3.40;99.90;;;;;;5097753;28;20239;-81
2021/03/17 13:00:19;;;;;;;6.17;3.97;;;3.10;99.90;;;;;;5079512;28;20190;-81
2021/03/17 13:02:45;;;;;;;4.70;3.37;;;3.00;99.90;;;;;;5098170;28;20184;-82
2021/03/17 13:05:14;;;;;;;4.77;3.30;;;2.90;99.90;;;;;;5097976;28;20479;-82
2021/03/17 13:07:40;;;;;;;5.67;3.60;;;2.70;99.90;;;;;;5078942;28;20434;-80